Kezdőlap
METAR-TAF:

METAR-TAF

Repülőterek :

Anapa, Oroszország

földrajzi szélesség: 44-54N, földrajzi hosszúság: 037-19E, magasság: 53 m

Jelenlegi meteorológiai megfigyelések

A jelentés 39 perccel ezelõtt készült, 01:30 UTC
Keleti szél 27 kt széllökések: 39 kt
Hőmérséklet -4°C
Páratartalom 68%
Légköri nyomás 1023 hPa
Látótávolság 10 km, vagy több
Szórványos felhőzet

METAR: URKA 220130Z 08014G20MPS 9999 SCT/// M04/M09 Q1023 R04/010070 TEMPO 07016G25MPS RMK QFE764/1018

Idő: 06:09 (02:09 UTC)

Előrejelzés

A jelentés 3 órával és 8 perccel ezelõtt készült, 23:01 UTC
Az előrejelzés 22-én 00 óra UTC és 22-én 24 óra UTC között érvényes
Keleti szél 25 kt széllökések: 39 kt
Látótávolság 10 km, vagy több
Szakadozott felhőzet 2000 lábon
22-én 00 óra UTC és 22-én 21 óra UTC között ideiglenes
Kelet-északkeleti szél 39 kt széllökések: 52 kt

TAF: URKA 212301Z 2200/2224 08013G20MPS 9999 BKN020 TEMPO 2200/2221 06020G27MPS

Meteorológiai megfigyelések és előrejelzések több, mint 4000 repülőtéren (METAR és TAF jelentéseket).

A térképen piros és sárga pontok jelzik az elérhető meteorológiai állomásokat.

Mozgassa az egeret a pont fölött, hogy megjelenjen az állomás neve.

Azután kattintson az időjárási megfigyelések és előrejelzések megtekintéséhez.

A térkép megváltoztatása: kattintson a fekete keresztel jelölt zöld gombra ráközelítéshez, a vonallal jelölt zöld gombra távolításhoz, vagy a zöld nyilakra a szomszédos térképek eléréséhez.


METAR-TAF: